Time;durP1;ratioP1;P1;durP2;ratioP2;P2;SDS_P1;SDS_P2;PMS_P1;PMS_P2;Temp;Humidity;BMP_temperature;BMP_pressure;BME280_temperature;BME280_humidity;BME280_pressure;Samples;Min_cycle;Max_cycle;Signal;HPM_P1;HPM_P2
2021/11/11 00:00:07;;;;;;;46.05;18.08;;;-0.40;99.90;;;;;;5016836;28;20527;-72
2021/11/11 00:02:38;;;;;;;41.97;17.48;;;-0.30;99.90;;;;;;5026938;28;20499;-73
2021/11/11 00:05:06;;;;;;;41.70;17.63;;;-0.50;99.90;;;;;;5027395;28;20586;-72
2021/11/11 00:07:33;;;;;;;39.95;17.40;;;-0.50;99.90;;;;;;5026741;28;20060;-72
2021/11/11 00:10:00;;;;;;;40.65;18.00;;;-0.50;99.90;;;;;;5008486;28;20053;-72
2021/11/11 00:12:31;;;;;;;43.22;18.17;;;-0.50;99.90;;;;;;5025278;28;20064;-72
2021/11/11 00:14:59;;;;;;;43.40;18.23;;;-0.50;99.90;;;;;;5027253;28;20061;-73
2021/11/11 00:17:26;;;;;;;38.05;17.90;;;-0.60;99.90;;;;;;5040445;28;20053;-72
2021/11/11 00:19:54;;;;;;;43.25;16.95;;;-0.60;99.90;;;;;;5027102;28;20046;-73
2021/11/11 00:22:21;;;;;;;42.17;19.17;;;-0.50;99.90;;;;;;5026318;28;20124;-72
2021/11/11 00:24:48;;;;;;;41.35;17.38;;;-0.40;99.90;;;;;;5026072;28;20137;-73
2021/11/11 00:27:15;;;;;;;43.13;19.17;;;-0.30;99.90;;;;;;5025034;28;20053;-73
2021/11/11 00:29:42;;;;;;;57.90;22.48;;;-0.40;99.90;;;;;;5006721;28;20511;-73
2021/11/11 00:32:09;;;;;;;49.83;22.05;;;-0.30;99.90;;;;;;5024633;28;20115;-73
2021/11/11 00:34:36;;;;;;;57.47;23.23;;;-0.30;99.90;;;;;;5008018;28;20045;-74
2021/11/11 00:37:03;;;;;;;49.60;21.65;;;-0.50;99.90;;;;;;5008949;28;20577;-73
2021/11/11 00:39:30;;;;;;;45.97;21.83;;;-0.60;99.90;;;;;;4992139;28;20517;-73
2021/11/11 00:41:57;;;;;;;43.83;18.23;;;-0.60;99.90;;;;;;5007560;28;20565;-73
2021/11/11 00:44:24;;;;;;;48.15;20.90;;;-0.60;99.90;;;;;;5008949;28;20041;-74
2021/11/11 00:46:51;;;;;;;41.00;18.55;;;-0.60;99.90;;;;;;5007672;28;20057;-73
2021/11/11 00:49:18;;;;;;;48.72;18.85;;;-0.60;99.90;;;;;;5025966;28;20103;-73
2021/11/11 00:51:44;;;;;;;43.70;19.02;;;-0.50;99.90;;;;;;5025675;28;20252;-73
2021/11/11 00:54:12;;;;;;;58.28;20.45;;;-0.40;99.90;;;;;;5006809;28;20046;-74
2021/11/11 00:56:39;;;;;;;51.35;20.48;;;-0.40;99.90;;;;;;5007090;28;20041;-74
2021/11/11 00:59:07;;;;;;;51.92;20.25;;;-0.30;99.90;;;;;;4991941;28;20352;-73
2021/11/11 01:01:34;;;;;;;55.70;21.05;;;-0.30;99.90;;;;;;5005200;28;20049;-73
2021/11/11 01:04:01;;;;;;;51.50;21.38;;;-0.20;99.90;;;;;;5006839;28;20046;-73
2021/11/11 01:06:28;;;;;;;70.75;24.88;;;-0.10;99.90;;;;;;5008362;28;20049;-73
2021/11/11 01:08:57;;;;;;;55.45;21.65;;;-0.20;99.90;;;;;;5025644;28;20053;-74
2021/11/11 01:11:25;;;;;;;54.97;21.45;;;-0.30;99.90;;;;;;5006721;28;20456;-74
2021/11/11 01:14:12;;;;;;;43.25;19.05;;;-0.40;99.90;;;;;;5026724;28;20487;-73
2021/11/11 01:16:39;;;;;;;36.20;17.73;;;-0.40;99.90;;;;;;5008144;28;20057;-73
2021/11/11 01:19:06;;;;;;;39.08;16.98;;;-0.50;99.90;;;;;;4991577;28;20140;-74
2021/11/11 01:21:33;;;;;;;40.38;18.08;;;-0.50;99.90;;;;;;5024769;28;20064;-73
2021/11/11 01:23:59;;;;;;;41.90;17.27;;;-0.60;99.90;;;;;;5024795;28;20076;-73
2021/11/11 01:26:26;;;;;;;40.72;18.67;;;-0.70;99.90;;;;;;5005439;28;20064;-73
2021/11/11 01:28:53;;;;;;;45.65;19.75;;;-0.80;99.90;;;;;;5008028;28;20416;-74
2021/11/11 01:31:21;;;;;;;38.58;18.38;;;-0.80;99.90;;;;;;4991434;28;20504;-73
2021/11/11 01:33:49;;;;;;;54.00;21.48;;;-0.80;99.90;;;;;;4973826;28;20507;-73
2021/11/11 01:36:19;;;;;;;62.83;23.15;;;-0.70;99.90;;;;;;5003931;28;20049;-73
2021/11/11 01:38:51;;;;;;;;;;;-0.60;99.90;;;;;;5007751;28;20676;-73
2021/11/11 01:41:21;;;;;;;59.47;22.77;;;-0.50;99.90;;;;;;5006763;28;20183;-73
2021/11/11 01:43:48;;;;;;;63.45;21.88;;;-0.50;99.90;;;;;;5025982;28;20053;-73
2021/11/11 01:46:16;;;;;;;84.00;26.02;;;-0.60;99.90;;;;;;5007491;28;20072;-73
2021/11/11 01:48:44;;;;;;;75.45;25.98;;;-0.40;99.90;;;;;;4990013;28;20171;-73
2021/11/11 01:51:17;;;;;;;69.60;23.67;;;-0.50;99.90;;;;;;4994061;28;20056;-74
2021/11/11 01:53:51;;;;;;;67.43;24.02;;;-0.50;99.90;;;;;;4990009;28;20137;-73
2021/11/11 01:56:23;;;;;;;63.08;22.88;;;-0.60;99.90;;;;;;4994933;28;20132;-73
2021/11/11 01:58:53;;;;;;;55.50;21.10;;;-0.70;99.90;;;;;;5008067;28;20128;-73
2021/11/11 02:01:21;;;;;;;73.32;23.77;;;-0.80;99.90;;;;;;4989675;28;20068;-73
2021/11/11 02:03:48;;;;;;;50.70;21.38;;;-0.80;99.90;;;;;;4990252;28;20064;-73
2021/11/11 02:06:38;;;;;;;60.13;21.35;;;-0.90;99.90;;;;;;5023736;28;20057;-73
2021/11/11 02:09:09;;;;;;;71.00;24.15;;;-0.90;99.90;;;;;;5004921;28;20045;-74
2021/11/11 02:11:53;;;;;;;79.63;26.08;;;-0.80;99.90;;;;;;5005614;28;20131;-74
2021/11/11 02:14:20;;;;;;;72.38;26.83;;;-0.80;99.90;;;;;;4990254;28;20080;-73
2021/11/11 02:16:48;;;;;;;92.93;29.77;;;-0.70;99.90;;;;;;4990270;28;20064;-73
2021/11/11 02:19:25;;;;;;;63.83;23.77;;;-0.70;99.90;;;;;;4991824;28;20133;-73
2021/11/11 02:21:54;;;;;;;55.45;22.33;;;-0.70;99.90;;;;;;5005881;28;20049;-73
2021/11/11 02:24:32;;;;;;;68.43;24.85;;;-0.70;99.90;;;;;;5004665;28;20041;-73
2021/11/11 02:27:19;;;;;;;61.17;22.67;;;-0.60;99.90;;;;;;5023572;28;20257;-73
2021/11/11 02:29:46;;;;;;;69.45;23.30;;;-0.70;99.90;;;;;;5007006;28;20077;-73
2021/11/11 02:32:13;;;;;;;66.82;25.40;;;-0.70;99.90;;;;;;5004510;28;20049;-72
2021/11/11 02:34:43;;;;;;;67.00;24.73;;;-0.60;99.90;;;;;;5005739;28;20534;-73
2021/11/11 02:37:12;;;;;;;68.20;23.80;;;-0.50;99.90;;;;;;5005928;28;20061;-72
2021/11/11 02:39:51;;;;;;;74.20;27.70;;;-0.50;99.90;;;;;;5023428;28;20052;-74
2021/11/11 02:42:26;;;;;;;71.22;24.90;;;-0.50;99.90;;;;;;5003893;28;20543;-73
2021/11/11 02:44:57;;;;;;;74.10;26.77;;;-0.60;99.90;;;;;;5006239;28;20059;-73
2021/11/11 02:47:29;;;;;;;67.55;24.65;;;-0.70;99.90;;;;;;4989606;28;20042;-73
2021/11/11 02:49:57;;;;;;;72.57;25.02;;;-0.80;99.90;;;;;;5006127;28;20049;-73
2021/11/11 02:52:24;;;;;;;61.47;24.25;;;-0.80;99.90;;;;;;5021642;28;20041;-73
2021/11/11 02:54:52;;;;;;;63.05;23.67;;;-0.90;99.90;;;;;;4988797;28;20535;-73
2021/11/11 02:57:28;;;;;;;58.10;22.60;;;-0.90;99.90;;;;;;4987258;28;20053;-73
2021/11/11 02:59:58;;;;;;;63.80;23.13;;;-1.00;99.90;;;;;;4989940;28;20060;-73
2021/11/11 03:02:28;;;;;;;63.80;24.40;;;-1.10;99.90;;;;;;5021845;28;20050;-73
2021/11/11 03:04:58;;;;;;;73.47;24.17;;;-1.10;99.90;;;;;;4989169;28;20680;-73
2021/11/11 03:07:29;;;;;;;71.00;25.77;;;-0.90;99.90;;;;;;5006005;28;20129;-73
2021/11/11 03:09:56;;;;;;;73.53;26.40;;;-0.70;99.90;;;;;;5006127;28;20472;-73
2021/11/11 03:12:23;;;;;;;79.13;28.05;;;-1.00;99.90;;;;;;4987827;28;20046;-73
2021/11/11 03:14:52;;;;;;;78.00;27.92;;;-1.00;99.90;;;;;;5006624;28;20042;-73
2021/11/11 03:17:20;;;;;;;72.65;26.08;;;-1.00;99.90;;;;;;5003945;28;20499;-73
2021/11/11 03:19:46;;;;;;;75.55;27.80;;;-1.00;99.90;;;;;;5005203;28;20049;-74
2021/11/11 03:22:20;;;;;;;87.80;30.02;;;-0.90;99.90;;;;;;4986594;28;20051;-74
2021/11/11 03:24:51;;;;;;;91.95;29.92;;;-1.00;99.90;;;;;;5006277;28;20049;-73
2021/11/11 03:27:20;;;;;;;79.75;27.38;;;-1.00;99.90;;;;;;5004941;28;20048;-74
2021/11/11 03:29:49;;;;;;;84.75;28.25;;;-1.00;99.90;;;;;;5024431;28;20081;-73
2021/11/11 03:32:17;;;;;;;80.75;27.98;;;-1.00;99.90;;;;;;4985566;28;20404;-72
2021/11/11 03:34:49;;;;;;;89.50;30.48;;;-1.10;99.90;;;;;;4989112;28;20048;-73
2021/11/11 03:37:16;;;;;;;104.43;31.83;;;-1.00;99.90;;;;;;5019700;28;20132;-74
2021/11/11 03:39:43;;;;;;;107.97;33.90;;;-1.00;99.90;;;;;;5003641;28;20056;-73
2021/11/11 03:42:12;;;;;;;115.65;35.80;;;-1.10;99.90;;;;;;4971402;28;20045;-73
2021/11/11 03:44:40;;;;;;;122.82;39.78;;;-0.90;99.90;;;;;;5005135;28;20430;-73
2021/11/11 03:47:07;;;;;;;113.97;36.10;;;-0.90;99.90;;;;;;5004446;28;20092;-73
2021/11/11 03:49:35;;;;;;;102.80;32.10;;;-1.00;99.90;;;;;;5022576;28;20280;-74
2021/11/11 03:52:04;;;;;;;111.82;33.75;;;-1.00;99.90;;;;;;5004866;28;20061;-73
2021/11/11 03:54:32;;;;;;;114.53;35.10;;;-1.10;99.90;;;;;;5000179;28;20049;-74
2021/11/11 03:57:00;;;;;;;98.18;31.48;;;-1.10;99.90;;;;;;5004637;28;20283;-73
2021/11/11 03:59:30;;;;;;;114.80;34.63;;;-1.10;99.90;;;;;;4987880;28;20053;-73
2021/11/11 04:01:57;;;;;;;116.97;34.13;;;-1.20;99.90;;;;;;5024071;28;20071;-73
2021/11/11 04:04:24;;;;;;;116.63;35.40;;;-1.20;99.90;;;;;;5023966;28;20125;-73
2021/11/11 04:06:51;;;;;;;129.77;38.83;;;-1.10;99.90;;;;;;4989807;28;20107;-73
2021/11/11 04:09:19;;;;;;;146.15;38.72;;;-1.10;99.90;;;;;;5008296;28;20064;-73
2021/11/11 04:11:46;;;;;;;123.95;40.03;;;-1.10;99.90;;;;;;5007050;28;20438;-73
2021/11/11 04:14:15;;;;;;;130.13;38.20;;;-1.10;99.90;;;;;;5008728;28;20049;-73
2021/11/11 04:16:42;;;;;;;117.05;36.00;;;-1.00;99.90;;;;;;5025731;28;20053;-73
2021/11/11 04:19:09;;;;;;;104.13;34.33;;;-1.10;99.90;;;;;;5007740;28;20053;-73
2021/11/11 04:21:37;;;;;;;121.47;34.53;;;-1.20;99.90;;;;;;5025863;28;20091;-73
2021/11/11 04:24:07;;;;;;;119.95;35.45;;;-1.20;99.90;;;;;;5007820;28;20058;-73
2021/11/11 04:26:41;;;;;;;97.80;33.97;;;-1.30;99.90;;;;;;4990207;28;20127;-73
2021/11/11 04:29:15;;;;;;;107.03;35.83;;;-1.20;99.90;;;;;;5004396;28;20057;-73
2021/11/11 04:31:48;;;;;;;152.18;43.60;;;-1.20;99.90;;;;;;4991314;28;20053;-73
2021/11/11 04:34:16;;;;;;;130.43;38.00;;;-1.30;99.90;;;;;;5008123;28;20191;-73
2021/11/11 04:45:37;;;;;;;133.65;41.25;;;-1.00;99.90;;;;;;4972472;28;20121;-73
2021/11/11 05:01:55;;;;;;;208.65;50.25;;;-0.70;99.90;;;;;;5006434;28;20045;-73
2021/11/11 05:04:23;;;;;;;258.05;58.35;;;-0.80;99.90;;;;;;5007435;28;20053;-73
2021/11/11 05:06:51;;;;;;;363.25;65.38;;;-0.70;99.90;;;;;;5005471;28;20041;-73
2021/11/11 05:09:18;;;;;;;251.70;53.17;;;-0.70;99.90;;;;;;5006293;28;20156;-73
2021/11/11 05:11:45;;;;;;;306.00;59.00;;;-0.70;99.90;;;;;;5004426;28;20424;-73
2021/11/11 05:14:12;;;;;;;453.42;74.43;;;-0.70;99.90;;;;;;5028212;28;20874;-73
2021/11/11 05:16:39;;;;;;;414.80;71.07;;;-0.80;99.90;;;;;;5028061;28;20290;-74
2021/11/11 05:19:06;;;;;;;494.85;75.32;;;-0.70;99.90;;;;;;5006126;28;20041;-73
2021/11/11 05:21:33;;;;;;;473.55;74.75;;;-0.60;99.90;;;;;;5006179;28;20099;-73
2021/11/11 05:24:00;;;;;;;497.02;75.30;;;-0.60;99.90;;;;;;4990146;28;20180;-73
2021/11/11 05:26:29;;;;;;;470.08;74.15;;;-0.60;99.90;;;;;;5005388;28;20041;-73
2021/11/11 05:28:59;;;;;;;542.70;80.20;;;-0.40;99.90;;;;;;4989204;28;20041;-74
2021/11/11 05:31:27;;;;;;;488.98;77.88;;;-0.40;99.90;;;;;;4977169;28;20539;-74
2021/11/11 05:33:54;;;;;;;351.58;70.93;;;-0.50;99.90;;;;;;4988483;28;20149;-73
2021/11/11 05:36:22;;;;;;;459.45;80.05;;;-0.50;99.90;;;;;;5005935;28;20466;-74
2021/11/11 05:38:49;;;;;;;290.88;63.00;;;-0.40;99.90;;;;;;5004854;28;20096;-73
2021/11/11 05:41:16;;;;;;;267.92;64.07;;;-0.40;99.90;;;;;;5004660;28;20060;-73
2021/11/11 05:43:46;;;;;;;236.32;59.38;;;-0.40;99.90;;;;;;4988409;28;20053;-74
2021/11/11 05:46:15;;;;;;;234.05;58.55;;;-0.30;99.90;;;;;;5005393;28;20053;-73
2021/11/11 05:48:45;;;;;;;235.05;56.53;;;-0.30;99.90;;;;;;5006580;28;20053;-73
2021/11/11 05:51:12;;;;;;;245.38;60.33;;;-0.30;99.90;;;;;;5006372;28;20048;-73
2021/11/11 05:53:40;;;;;;;221.13;54.05;;;-0.20;99.90;;;;;;4989191;28;20034;-73
2021/11/11 05:56:08;;;;;;;232.15;55.50;;;-0.30;99.90;;;;;;4988606;28;20089;-73
2021/11/11 05:58:35;;;;;;;218.38;53.03;;;-0.20;99.90;;;;;;5022931;28;20118;-73
2021/11/11 06:01:03;;;;;;;214.68;55.95;;;-0.30;99.90;;;;;;5005486;28;20049;-73
2021/11/11 06:03:41;;;;;;;205.75;58.97;;;-0.20;99.90;;;;;;4989695;28;20076;-73
2021/11/11 06:06:08;;;;;;;177.48;50.22;;;-0.20;99.90;;;;;;5004282;28;20099;-73
2021/11/11 06:08:39;;;;;;;189.40;52.05;;;-0.10;99.90;;;;;;5005257;28;20060;-74
2021/11/11 06:11:08;;;;;;;198.20;54.60;;;-0.20;99.90;;;;;;4989274;28;20396;-73
2021/11/11 06:13:36;;;;;;;204.35;56.17;;;-0.10;99.90;;;;;;4986442;28;20469;-73
2021/11/11 06:16:03;;;;;;;214.48;56.67;;;-0.10;99.90;;;;;;5004694;28;20479;-74
2021/11/11 06:18:31;;;;;;;192.27;55.45;;;0.00;99.90;;;;;;5005887;28;20073;-73
2021/11/11 06:21:02;;;;;;;186.95;55.28;;;0.20;99.90;;;;;;5004976;28;20048;-73
2021/11/11 06:23:34;;;;;;;201.25;57.63;;;0.10;99.90;;;;;;5038444;28;20085;-73
2021/11/11 06:26:03;;;;;;;191.90;56.63;;;0.30;99.90;;;;;;5003709;28;20049;-73
2021/11/11 06:28:33;;;;;;;189.68;54.10;;;0.20;99.90;;;;;;4985871;28;20515;-73
2021/11/11 06:31:03;;;;;;;196.57;55.67;;;0.30;99.90;;;;;;4977539;28;20068;-73
2021/11/11 06:33:31;;;;;;;198.13;54.67;;;0.20;99.90;;;;;;5005778;28;20065;-74
2021/11/11 06:35:58;;;;;;;192.52;54.67;;;0.20;99.90;;;;;;4995414;28;20389;-73
2021/11/11 06:38:25;;;;;;;174.10;50.38;;;0.20;99.90;;;;;;5022011;28;20076;-74
2021/11/11 06:40:54;;;;;;;210.88;56.42;;;0.20;99.90;;;;;;5021312;28;20554;-74
2021/11/11 06:43:21;;;;;;;177.27;55.78;;;0.50;99.90;;;;;;5010429;28;20122;-74
2021/11/11 06:45:48;;;;;;;164.30;51.63;;;0.50;99.90;;;;;;5021675;28;20130;-73
2021/11/11 06:48:15;;;;;;;178.80;53.30;;;0.50;99.90;;;;;;5024431;28;20067;-74
2021/11/11 06:50:44;;;;;;;188.00;56.60;;;0.60;99.90;;;;;;5004547;28;20180;-73
2021/11/11 06:53:14;;;;;;;184.13;54.80;;;0.80;99.90;;;;;;5003685;28;20113;-73
2021/11/11 06:55:43;;;;;;;187.10;55.30;;;0.70;99.90;;;;;;5004348;28;20415;-74
2021/11/11 06:58:11;;;;;;;198.75;55.90;;;0.70;99.90;;;;;;5008747;28;20500;-73
2021/11/11 07:00:40;;;;;;;167.98;54.22;;;0.80;99.90;;;;;;5026321;28;20041;-73
2021/11/11 07:03:11;;;;;;;166.38;53.30;;;0.80;99.90;;;;;;5005134;28;20123;-73
2021/11/11 07:05:42;;;;;;;172.93;54.35;;;0.90;99.90;;;;;;4987398;28;20077;-73
2021/11/11 07:08:10;;;;;;;174.70;52.05;;;0.80;99.90;;;;;;5005826;28;20147;-74
2021/11/11 07:10:38;;;;;;;162.82;54.22;;;0.90;99.90;;;;;;5007128;28;20053;-74
2021/11/11 07:13:05;;;;;;;199.88;73.25;;;0.80;99.90;;;;;;5023132;28;20081;-74
2021/11/11 07:15:33;;;;;;;183.25;56.97;;;0.90;99.90;;;;;;5021802;28;20053;-74
2021/11/11 07:18:01;;;;;;;185.38;66.85;;;0.90;99.90;;;;;;4988411;28;20053;-74
2021/11/11 07:20:28;;;;;;;266.00;113.40;;;1.00;99.90;;;;;;4987992;28;20057;-73
2021/11/11 07:22:59;;;;;;;272.08;103.13;;;1.10;99.90;;;;;;5008634;28;20049;-74
2021/11/11 07:25:26;;;;;;;183.73;61.25;;;1.20;99.90;;;;;;5005429;28;20068;-74
2021/11/11 07:27:55;;;;;;;154.70;56.60;;;1.20;99.90;;;;;;5005306;28;20049;-74
2021/11/11 07:30:22;;;;;;;189.55;64.45;;;1.20;99.90;;;;;;5005847;28;20434;-74
2021/11/11 07:32:49;;;;;;;153.20;56.55;;;1.40;99.90;;;;;;5023707;28;20399;-73
2021/11/11 07:35:17;;;;;;;158.65;54.63;;;1.40;99.90;;;;;;5023417;28;20495;-74
2021/11/11 07:37:47;;;;;;;159.60;56.88;;;1.50;99.90;;;;;;5005901;28;20101;-74
2021/11/11 07:40:16;;;;;;;170.35;59.53;;;1.50;99.90;;;;;;5007825;28;20423;-74
2021/11/11 07:42:43;;;;;;;178.75;63.47;;;1.60;99.90;;;;;;5009938;28;20103;-75
2021/11/11 07:45:12;;;;;;;170.23;65.20;;;1.50;99.90;;;;;;4993012;28;20060;-74
2021/11/11 07:47:39;;;;;;;176.63;66.68;;;1.40;99.90;;;;;;5025997;28;20530;-74
2021/11/11 07:50:09;;;;;;;179.35;65.43;;;1.30;99.90;;;;;;5027754;28;20045;-74
2021/11/11 07:52:36;;;;;;;163.63;65.63;;;1.40;99.90;;;;;;5008425;28;20045;-73
2021/11/11 07:55:05;;;;;;;170.90;67.07;;;1.50;99.90;;;;;;5025888;28;20441;-73
2021/11/11 07:57:33;;;;;;;164.88;62.97;;;1.60;99.90;;;;;;5015426;28;20114;-74
2021/11/11 08:00:01;;;;;;;183.82;65.85;;;1.80;99.90;;;;;;5047871;28;20061;-73
2021/11/11 08:02:40;;;;;;;159.18;61.17;;;1.90;99.90;;;;;;5034964;28;20543;-74
2021/11/11 08:05:09;;;;;;;161.90;66.32;;;1.90;99.90;;;;;;5009490;28;20124;-73
2021/11/11 08:07:36;;;;;;;164.30;62.45;;;2.00;99.90;;;;;;5026776;28;20064;-74
2021/11/11 08:10:04;;;;;;;227.57;70.30;;;2.10;99.90;;;;;;5025173;28;20456;-74
2021/11/11 08:12:31;;;;;;;206.15;65.28;;;2.10;99.90;;;;;;5024740;28;20055;-74
2021/11/11 08:14:58;;;;;;;202.38;67.40;;;2.20;99.90;;;;;;5027399;28;20054;-74
2021/11/11 08:17:25;;;;;;;185.80;66.43;;;2.30;99.90;;;;;;5026592;28;20053;-73
2021/11/11 08:19:56;;;;;;;172.45;60.40;;;2.40;99.90;;;;;;5008578;28;20057;-74
2021/11/11 08:22:25;;;;;;;172.32;61.65;;;2.50;99.90;;;;;;5025772;28;20053;-74
2021/11/11 08:24:53;;;;;;;178.52;62.25;;;2.60;99.90;;;;;;5026021;28;20057;-73
2021/11/11 08:27:22;;;;;;;173.85;62.45;;;2.50;99.90;;;;;;5008622;28;20041;-73
2021/11/11 08:29:49;;;;;;;159.32;61.83;;;2.50;99.90;;;;;;5009436;28;20336;-73
2021/11/11 08:32:16;;;;;;;157.00;58.53;;;2.60;99.90;;;;;;5025088;28;20467;-72
2021/11/11 08:34:46;;;;;;;156.77;62.28;;;2.60;99.90;;;;;;5027088;28;20064;-74
2021/11/11 08:37:13;;;;;;;175.65;67.43;;;2.60;99.90;;;;;;5008385;28;20135;-74
2021/11/11 08:39:40;;;;;;;172.68;66.97;;;2.60;99.90;;;;;;5008369;28;20099;-75
2021/11/11 08:42:09;;;;;;;194.15;75.20;;;2.70;99.90;;;;;;5022905;28;20123;-73
2021/11/11 08:44:42;;;;;;;160.82;66.30;;;2.70;99.90;;;;;;5024941;28;20057;-74
2021/11/11 08:47:19;;;;;;;128.68;52.28;;;2.80;99.90;;;;;;4991309;28;20396;-74
2021/11/11 08:49:51;;;;;;;133.18;52.85;;;2.90;99.90;;;;;;5008598;28;20045;-73
2021/11/11 08:52:19;;;;;;;122.55;52.28;;;3.00;99.90;;;;;;5025395;28;20274;-73
2021/11/11 08:54:51;;;;;;;116.97;50.80;;;3.10;99.90;;;;;;5025027;28;20605;-74
2021/11/11 08:57:18;;;;;;;117.63;51.78;;;3.30;99.90;;;;;;5025536;28;20195;-74
2021/11/11 09:00:08;;;;;;;115.18;52.70;;;3.50;99.90;;;;;;5027177;28;20076;-74
2021/11/11 09:02:35;;;;;;;103.30;50.30;;;3.70;99.90;;;;;;5026334;28;20111;-74
2021/11/11 09:05:03;;;;;;;90.78;46.03;;;4.10;99.90;;;;;;5026399;28;20057;-74
2021/11/11 09:07:29;;;;;;;95.00;47.63;;;4.30;99.90;;;;;;5007927;28;20056;-74
2021/11/11 09:09:56;;;;;;;104.63;44.33;;;4.50;99.90;;;;;;5007334;28;20064;-74
2021/11/11 09:12:24;;;;;;;91.15;42.70;;;4.60;99.90;;;;;;5025987;28;20512;-74
2021/11/11 09:14:51;;;;;;;103.10;43.20;;;4.80;99.90;;;;;;5020995;28;20050;-76
2021/11/11 09:17:18;;;;;;;98.60;44.90;;;5.00;99.90;;;;;;5025317;28;20678;-77
2021/11/11 09:19:44;;;;;;;100.18;47.75;;;5.20;99.90;;;;;;5028325;28;20064;-77
2021/11/11 09:22:11;;;;;;;77.55;41.70;;;5.30;99.90;;;;;;5008085;28;20049;-77
2021/11/11 09:24:39;;;;;;;92.35;43.53;;;5.60;99.90;;;;;;5007791;28;20380;-75
2021/11/11 09:27:07;;;;;;;100.38;50.58;;;5.80;99.90;;;;;;5007159;28;20463;-75
2021/11/11 09:29:34;;;;;;;91.55;42.28;;;5.90;99.90;;;;;;5007746;28;20471;-75
2021/11/11 09:32:01;;;;;;;83.00;42.17;;;6.10;99.90;;;;;;5006640;28;20107;-75
2021/11/11 09:34:28;;;;;;;69.95;39.50;;;6.30;99.90;;;;;;5023339;28;20307;-75
2021/11/11 09:36:55;;;;;;;71.22;40.60;;;6.40;99.90;;;;;;5020187;28;20054;-75
2021/11/11 09:39:21;;;;;;;70.97;38.92;;;6.60;99.90;;;;;;4987402;28;20057;-75
2021/11/11 09:41:51;;;;;;;61.38;36.78;;;6.60;99.90;;;;;;4987144;28;20465;-74
2021/11/11 09:44:24;;;;;;;62.33;36.58;;;6.90;99.90;;;;;;5005969;28;20062;-75
2021/11/11 09:46:53;;;;;;;66.65;37.92;;;6.90;99.90;;;;;;5003151;28;20069;-75
2021/11/11 09:49:21;;;;;;;72.85;40.35;;;7.10;99.90;;;;;;5024392;28;20523;-75
2021/11/11 09:51:50;;;;;;;65.72;37.75;;;6.90;99.90;;;;;;5002812;28;20364;-75
2021/11/11 09:58:34;;;;;;;80.15;41.85;;;6.90;99.90;;;;;;5004372;28;20098;-75
2021/11/11 09:59:55;;;;;;;71.00;39.20;;;7.20;99.90;;;;;;4990041;28;20056;-75
2021/11/11 10:02:22;;;;;;;72.47;38.90;;;7.30;99.90;;;;;;5009427;28;20569;-74
2021/11/11 10:04:49;;;;;;;66.60;39.78;;;7.40;99.90;;;;;;5024159;28;20064;-75
2021/11/11 10:07:16;;;;;;;69.40;39.72;;;7.60;99.90;;;;;;5005070;28;20059;-74
2021/11/11 10:09:47;;;;;;;71.78;38.40;;;7.80;99.90;;;;;;5023896;28;20088;-75
2021/11/11 10:12:18;;;;;;;65.60;36.55;;;8.00;99.90;;;;;;5005715;28;20153;-75
2021/11/11 10:14:47;;;;;;;67.63;37.47;;;8.20;99.90;;;;;;5006040;28;20041;-74
2021/11/11 10:17:17;;;;;;;64.38;37.45;;;8.40;99.90;;;;;;4989464;28;20061;-74
2021/11/11 10:19:50;;;;;;;61.70;36.30;;;8.50;99.90;;;;;;5024635;28;20057;-75
2021/11/11 10:22:31;;;;;;;67.28;41.90;;;8.40;99.90;;;;;;4988570;28;20049;-75
2021/11/11 10:25:02;;;;;;;65.85;39.10;;;8.40;99.90;;;;;;5022562;28;20115;-74
2021/11/11 10:27:44;;;;;;;62.22;37.78;;;8.60;99.90;;;;;;5021120;28;20054;-74
2021/11/11 10:30:15;;;;;;;63.50;37.25;;;8.60;99.90;;;;;;5004104;28;20057;-75
2021/11/11 10:32:48;;;;;;;60.78;37.67;;;8.70;99.90;;;;;;5022901;28;20061;-75
2021/11/11 10:35:17;;;;;;;56.05;34.95;;;8.90;99.90;;;;;;5022979;28;20520;-74
2021/11/11 10:37:57;;;;;;;66.78;34.92;;;9.10;99.90;;;;;;5001306;28;20232;-74
2021/11/11 10:40:31;;;;;;;58.72;34.45;;;9.10;99.90;;;;;;5020742;28;20053;-75
2021/11/11 10:43:00;;;;;;;50.53;30.67;;;9.10;99.90;;;;;;5023341;28;20061;-75
2021/11/11 10:45:30;;;;;;;41.65;27.55;;;9.10;99.90;;;;;;5001731;28;20112;-75
2021/11/11 10:48:04;;;;;;;47.75;28.08;;;9.10;99.90;;;;;;5027109;28;20064;-74
2021/11/11 10:50:38;;;;;;;44.03;27.75;;;9.20;99.90;;;;;;5007570;28;20104;-74
2021/11/11 10:53:08;;;;;;;42.22;28.05;;;9.10;99.90;;;;;;5010080;28;20388;-75
2021/11/11 10:55:42;;;;;;;40.92;27.63;;;9.20;99.90;;;;;;5021598;28;20157;-75
2021/11/11 10:58:12;;;;;;;52.13;31.63;;;9.30;99.90;;;;;;5023481;28;20049;-75
2021/11/11 11:00:53;;;;;;;46.65;28.75;;;9.30;99.90;;;;;;5025450;28;20053;-75
2021/11/11 11:03:31;;;;;;;48.10;29.85;;;9.20;99.90;;;;;;5006794;28;20061;-75
2021/11/11 11:06:19;;;;;;;45.97;28.30;;;9.10;99.90;;;;;;5022764;28;20061;-76
2021/11/11 11:08:51;;;;;;;41.65;27.23;;;9.20;99.90;;;;;;5028172;28;20057;-76
2021/11/11 11:11:22;;;;;;;44.78;28.70;;;9.20;99.90;;;;;;5024768;28;20538;-76
2021/11/11 11:13:55;;;;;;;43.20;27.27;;;9.20;99.90;;;;;;5027862;28;20060;-76
2021/11/11 11:16:28;;;;;;;39.90;26.88;;;9.30;99.90;;;;;;5028945;28;20049;-76
2021/11/11 11:19:01;;;;;;;44.30;26.98;;;9.40;99.90;;;;;;5029243;28;20088;-76
2021/11/11 11:21:50;;;;;;;40.30;26.10;;;9.50;99.90;;;;;;5024948;28;20064;-75
2021/11/11 11:24:27;;;;;;;47.78;28.92;;;9.50;99.90;;;;;;5024572;28;20049;-76
2021/11/11 11:26:57;;;;;;;37.85;26.75;;;9.40;99.90;;;;;;5009824;28;20048;-76
2021/11/11 11:32:08;;;;;;;45.10;29.60;;;9.20;99.90;;;;;;5006769;28;20565;-76
2021/11/11 11:34:36;;;;;;;46.90;29.25;;;9.40;99.90;;;;;;5027763;28;20041;-76
2021/11/11 11:37:06;;;;;;;47.38;29.08;;;9.30;99.90;;;;;;5009543;28;20581;-75
2021/11/11 11:39:37;;;;;;;43.58;28.20;;;9.40;99.90;;;;;;5009359;28;20049;-76
2021/11/11 11:42:19;;;;;;;49.78;30.75;;;9.40;99.90;;;;;;5008671;28;20514;-76
2021/11/11 11:44:47;;;;;;;47.08;29.10;;;9.20;99.90;;;;;;5027226;28;20065;-75
2021/11/11 11:50:24;;;;;;;49.78;30.23;;;9.50;99.90;;;;;;5026949;28;20049;-76
2021/11/11 11:52:57;;;;;;;52.22;31.00;;;9.70;99.90;;;;;;4992089;28;20293;-76
2021/11/11 11:55:34;;;;;;;43.25;29.30;;;9.80;99.90;;;;;;5039000;28;20046;-76
2021/11/11 11:58:13;;;;;;;43.10;29.00;;;9.90;99.90;;;;;;5007619;28;20213;-76
2021/11/11 12:12:10;;;;;;;47.10;30.58;;;9.90;99.90;;;;;;5007789;28;20101;-77
2021/11/11 12:34:35;;;;;;;44.72;28.80;;;9.30;99.90;;;;;;5026486;28;20057;-73
2021/11/11 12:40:04;;;;;;;49.92;29.08;;;9.10;99.90;;;;;;5025032;28;20526;-73
2021/11/11 12:42:49;;;;;;;48.85;28.30;;;9.10;99.90;;;;;;5025707;28;20087;-72
2021/11/11 12:45:19;;;;;;;47.50;29.02;;;9.10;99.90;;;;;;5024798;28;20057;-73
2021/11/11 12:47:58;;;;;;;47.05;29.35;;;9.00;99.90;;;;;;5027096;28;20057;-73
2021/11/11 12:50:40;;;;;;;43.67;28.65;;;9.00;99.90;;;;;;4991142;28;20054;-73
2021/11/11 12:55:43;;;;;;;53.53;31.52;;;9.00;99.90;;;;;;5005978;28;20046;-73
2021/11/11 12:58:17;;;;;;;45.22;27.30;;;9.00;99.90;;;;;;5025094;28;20127;-74
2021/11/11 13:00:47;;;;;;;56.97;31.17;;;9.00;99.90;;;;;;5040162;28;20053;-73
2021/11/11 13:03:16;;;;;;;51.10;30.08;;;9.00;99.90;;;;;;5022822;28;20069;-73
2021/11/11 13:05:47;;;;;;;53.22;29.92;;;9.00;99.90;;;;;;5024958;28;20067;-73
2021/11/11 13:08:16;;;;;;;51.25;30.45;;;9.00;99.90;;;;;;4975433;28;20099;-73
2021/11/11 13:11:03;;;;;;;49.67;29.23;;;8.90;99.90;;;;;;5006010;28;20045;-72
2021/11/11 13:13:35;;;;;;;48.63;31.25;;;8.90;99.90;;;;;;5007339;28;20049;-72
2021/11/11 13:16:19;;;;;;;51.38;32.30;;;8.80;99.90;;;;;;5025016;28;20053;-73
2021/11/11 13:18:50;;;;;;;45.97;29.05;;;8.90;99.90;;;;;;5026001;28;20049;-73
2021/11/11 13:21:24;;;;;;;51.20;29.40;;;8.90;99.90;;;;;;5023757;28;20472;-73
2021/11/11 15:46:26;;;;;;;55.13;31.85;;;8.60;99.90;;;;;;5022225;28;20065;-72
2021/11/11 16:02:52;;;;;;;59.05;34.13;;;8.60;99.90;;;;;;4984584;28;20143;-73
2021/11/11 16:20:07;;;;;;;64.18;36.53;;;8.60;99.90;;;;;;4968099;28;20062;-72
2021/11/11 16:25:13;;;;;;;59.92;33.15;;;8.60;99.90;;;;;;5023757;28;20092;-72
2021/11/11 16:27:40;;;;;;;56.72;32.85;;;8.60;99.90;;;;;;5025162;28;20053;-72
2021/11/11 16:30:09;;;;;;;61.78;35.90;;;8.60;99.90;;;;;;5007620;28;20053;-72
2021/11/11 16:32:37;;;;;;;63.50;35.28;;;8.50;99.90;;;;;;5008737;28;20057;-72
2021/11/11 16:35:06;;;;;;;65.93;34.22;;;8.50;99.90;;;;;;5006094;28;20748;-72
2021/11/11 16:37:34;;;;;;;56.13;32.78;;;8.50;99.90;;;;;;5005381;28;20190;-72
2021/11/11 16:40:03;;;;;;;52.00;32.40;;;8.50;99.90;;;;;;5021449;28;20073;-71
2021/11/11 16:42:30;;;;;;;67.47;37.00;;;8.50;99.90;;;;;;5023815;28;20411;-72